PTI737 WMKK-YSSY
Flight info
| Callsign | PTI737 |
|---|---|
| Flight time | N/A |
| Altitude | 35000 |
| Route | MITOS1D MITOS M630 BOBAG P501 ANITO B470 PKP L511 SBR W33 BLI M635 ATMAP A576 PKS W440 AKMIR W113 ODALE |
| Aircraft | B737/M-SDE2E3FGHIRWXY/LB1 |
Departure
| Time | 2026-05-01 12:57 |
|---|---|
| Airport | Kuala Lumpur International Airport (WMKK) |
Arrival
| Time | N/A |
|---|---|
| Airport | Sydney Kingsford Smith International Airport (YSSY) |
| Time | Latitude | Longitude | Altitude | Speed | Heading |
|---|---|---|---|---|---|
| 2026-05-01 12:07 | 2.74874 | 101.70355 | 72 ft | 0 kts | 147° |
| 2026-05-01 12:48 | 2.74888 | 101.70346 | 62 ft | 4 kts | 147° |
| 2026-05-01 12:49 | 2.74910 | 101.70332 | 67 ft | 4 kts | 142° |
| 2026-05-01 12:49 | 2.74927 | 101.70312 | 62 ft | 4 kts | 103° |
| 2026-05-01 12:49 | 2.74925 | 101.70290 | 67 ft | 2 kts | 57° |
| 2026-05-01 12:49 | 2.74921 | 101.70284 | 69 ft | 0 kts | 56° |
| 2026-05-01 12:52 | 2.74923 | 101.70287 | 68 ft | 5 kts | 56° |
| 2026-05-01 12:52 | 2.74974 | 101.70364 | 68 ft | 15 kts | 57° |
| 2026-05-01 12:53 | 2.75066 | 101.70543 | 72 ft | 15 kts | 104° |
| 2026-05-01 12:53 | 2.74985 | 101.70635 | 72 ft | 20 kts | 117° |
| 2026-05-01 12:53 | 2.75033 | 101.70771 | 69 ft | 25 kts | 56° |
| 2026-05-01 12:54 | 2.75132 | 101.70917 | 72 ft | 25 kts | 54° |
| 2026-05-01 12:54 | 2.75311 | 101.71185 | 66 ft | 22 kts | 60° |
| 2026-05-01 12:54 | 2.75401 | 101.71308 | 68 ft | 22 kts | 52° |
| 2026-05-01 12:55 | 2.75477 | 101.71546 | 68 ft | 20 kts | 141° |
| 2026-05-01 12:55 | 2.75343 | 101.71639 | 63 ft | 26 kts | 146° |
| 2026-05-01 12:55 | 2.75196 | 101.71738 | 68 ft | 25 kts | 146° |
| 2026-05-01 12:56 | 2.75058 | 101.71831 | 69 ft | 23 kts | 146° |
| 2026-05-01 12:56 | 2.74927 | 101.71919 | 77 ft | 22 kts | 147° |
| 2026-05-01 12:56 | 2.74799 | 101.72003 | 72 ft | 22 kts | 147° |
| 2026-05-01 12:56 | 2.74795 | 101.72130 | 75 ft | 25 kts | 56° |
| 2026-05-01 12:57 | 2.74939 | 101.72141 | 71 ft | 39 kts | 326° |
| 2026-05-01 12:57 | 2.76337 | 101.71223 | 258 ft | 176 kts | 328° |
| 2026-05-01 12:57 | 2.77316 | 101.70560 | 1304 ft | 175 kts | 326° |
| 2026-05-01 12:58 | 2.78401 | 101.69824 | 1991 ft | 203 kts | 327° |
| 2026-05-01 12:58 | 2.79680 | 101.68980 | 2310 ft | 235 kts | 333° |
| 2026-05-01 12:58 | 2.81233 | 101.68398 | 2958 ft | 242 kts | 344° |
| 2026-05-01 12:59 | 2.84563 | 101.67263 | 4193 ft | 271 kts | 341° |
| 2026-05-01 12:59 | 2.86361 | 101.66620 | 5070 ft | 276 kts | 341° |
| 2026-05-01 12:59 | 2.90090 | 101.65885 | 6834 ft | 278 kts | 15° |
| 2026-05-01 13:00 | 2.93015 | 101.68215 | 8474 ft | 279 kts | 63° |
| 2026-05-01 13:00 | 2.93845 | 101.69977 | 9319 ft | 282 kts | 67° |
| 2026-05-01 13:01 | 2.94753 | 101.73816 | 10567 ft | 300 kts | 100° |
| 2026-05-01 13:01 | 2.93990 | 101.75777 | 11203 ft | 309 kts | 123° |
| 2026-05-01 13:01 | 2.90970 | 101.78906 | 12729 ft | 317 kts | 135° |
| 2026-05-01 13:02 | 2.89337 | 101.80399 | 13462 ft | 321 kts | 136° |
| 2026-05-01 13:07 | 2.48949 | 102.13057 | 25295 ft | 389 kts | 140° |
| 2026-05-01 13:07 | 2.46800 | 102.14718 | 25715 ft | 392 kts | 140° |
| 2026-05-01 13:07 | 2.44637 | 102.16390 | 26159 ft | 394 kts | 140° |
| 2026-05-01 13:08 | 2.42495 | 102.18046 | 26596 ft | 396 kts | 140° |
| 2026-05-01 13:08 | 2.40302 | 102.19742 | 26995 ft | 400 kts | 140° |
| 2026-05-01 13:08 | 2.38095 | 102.21448 | 27388 ft | 403 kts | 140° |
| 2026-05-01 13:08 | 2.35869 | 102.23170 | 27774 ft | 406 kts | 140° |
| 2026-05-01 13:09 | 2.33627 | 102.24904 | 28168 ft | 409 kts | 140° |
| 2026-05-01 13:09 | 2.31367 | 102.26651 | 28557 ft | 412 kts | 140° |
| 2026-05-01 13:09 | 2.29093 | 102.28409 | 28935 ft | 415 kts | 140° |
| 2026-05-01 13:09 | 2.26802 | 102.30181 | 29308 ft | 418 kts | 140° |
| 2026-05-01 13:10 | 2.24493 | 102.31966 | 29683 ft | 421 kts | 140° |
| 2026-05-01 13:10 | 2.22172 | 102.33761 | 30029 ft | 423 kts | 141° |
| 2026-05-01 13:10 | 2.19840 | 102.35563 | 30373 ft | 424 kts | 141° |
| 2026-05-01 13:10 | 2.17499 | 102.37372 | 30707 ft | 426 kts | 141° |
| 2026-05-01 13:11 | 2.15152 | 102.39186 | 31023 ft | 428 kts | 141° |
| 2026-05-01 13:11 | 2.12789 | 102.41011 | 31321 ft | 430 kts | 141° |
| 2026-05-01 13:11 | 2.10409 | 102.42850 | 31565 ft | 434 kts | 140° |
| 2026-05-01 13:11 | 2.08010 | 102.44704 | 31803 ft | 438 kts | 141° |
| 2026-05-01 13:12 | 2.05596 | 102.46569 | 32115 ft | 439 kts | 141° |
| 2026-05-01 13:12 | 2.03178 | 102.48437 | 32441 ft | 440 kts | 141° |
| 2026-05-01 13:12 | 2.00748 | 102.50315 | 32720 ft | 442 kts | 141° |
| 2026-05-01 13:12 | 1.98310 | 102.52199 | 32982 ft | 444 kts | 141° |
| 2026-05-01 13:13 | 1.95863 | 102.54089 | 33236 ft | 446 kts | 141° |
| 2026-05-01 13:13 | 1.93404 | 102.55990 | 33492 ft | 448 kts | 141° |
| 2026-05-01 13:13 | 1.90935 | 102.57897 | 33747 ft | 449 kts | 141° |
| 2026-05-01 13:13 | 1.88456 | 102.59812 | 33968 ft | 451 kts | 141° |
| 2026-05-01 13:14 | 1.85967 | 102.61735 | 34172 ft | 452 kts | 141° |
| 2026-05-01 13:14 | 1.83477 | 102.63659 | 34427 ft | 452 kts | 141° |
| 2026-05-01 13:14 | 1.80992 | 102.65578 | 34695 ft | 451 kts | 141° |
| 2026-05-01 13:14 | 1.78506 | 102.67499 | 34878 ft | 453 kts | 141° |
| 2026-05-01 13:15 | 1.76002 | 102.69433 | 34888 ft | 457 kts | 141° |
| 2026-05-01 13:15 | 1.70929 | 102.73353 | 34913 ft | 465 kts | 141° |
| 2026-05-01 13:16 | 1.65780 | 102.77330 | 34914 ft | 471 kts | 141° |
| 2026-05-01 13:16 | 1.60561 | 102.81361 | 34897 ft | 476 kts | 141° |
| 2026-05-01 13:17 | 1.50021 | 102.89500 | 34890 ft | 480 kts | 141° |
| 2026-05-01 13:18 | 1.42151 | 102.95579 | 34890 ft | 478 kts | 141° |
| 2026-05-01 13:18 | 1.37241 | 103.00014 | 34893 ft | 475 kts | 132° |
| 2026-05-01 13:19 | 1.32862 | 103.04934 | 34881 ft | 473 kts | 130° |
| 2026-05-01 13:20 | 1.26403 | 103.12381 | 34880 ft | 472 kts | 130° |
| 2026-05-01 13:20 | 1.22071 | 103.17294 | 34890 ft | 471 kts | 130° |
| 2026-05-01 13:21 | 1.15570 | 103.24633 | 34883 ft | 469 kts | 130° |
| 2026-05-01 13:21 | 1.11245 | 103.29516 | 34883 ft | 469 kts | 130° |
| 2026-05-01 13:22 | 1.06926 | 103.34395 | 34884 ft | 469 kts | 130° |
| 2026-05-01 13:22 | 1.02607 | 103.39274 | 34887 ft | 469 kts | 130° |
| 2026-05-01 13:23 | 0.98286 | 103.44154 | 34887 ft | 469 kts | 130° |
| 2026-05-01 13:23 | 0.93958 | 103.49031 | 34887 ft | 469 kts | 130° |
| 2026-05-01 13:24 | 0.89619 | 103.53914 | 34890 ft | 470 kts | 130° |
| 2026-05-01 13:25 | 0.83112 | 103.61241 | 34891 ft | 470 kts | 130° |
| 2026-05-01 13:25 | 0.78775 | 103.66127 | 34896 ft | 470 kts | 130° |
| 2026-05-01 13:26 | 0.74435 | 103.71015 | 34900 ft | 470 kts | 130° |
| 2026-05-01 13:26 | 0.70091 | 103.75908 | 34895 ft | 471 kts | 130° |
| 2026-05-01 13:27 | 0.65740 | 103.80808 | 34902 ft | 471 kts | 130° |
| 2026-05-01 13:27 | 0.59213 | 103.88160 | 34906 ft | 472 kts | 130° |
| 2026-05-01 13:28 | 0.52707 | 103.95488 | 34907 ft | 472 kts | 130° |
| 2026-05-01 13:29 | 0.43989 | 104.05302 | 34910 ft | 472 kts | 130° |
| 2026-05-01 13:30 | 0.35999 | 104.14300 | 35340 ft | 471 kts | 130° |
| 2026-05-01 13:31 | 0.31682 | 104.19162 | 35934 ft | 465 kts | 130° |
| 2026-05-01 13:31 | 0.25275 | 104.26372 | 36694 ft | 460 kts | 130° |
| 2026-05-01 13:32 | 0.21036 | 104.31144 | 36888 ft | 461 kts | 130° |
| 2026-05-01 13:33 | 0.10437 | 104.43077 | 36912 ft | 457 kts | 130° |
| 2026-05-01 13:34 | 0.02018 | 104.52558 | 36909 ft | 456 kts | 130° |
| 2026-05-01 13:35 | -0.04287 | 104.59657 | 36921 ft | 455 kts | 130° |
| 2026-05-01 13:36 | -0.10591 | 104.66755 | 36916 ft | 455 kts | 130° |
| 2026-05-01 13:36 | -0.16897 | 104.73856 | 36924 ft | 455 kts | 130° |
| 2026-05-01 13:37 | -0.21101 | 104.78591 | 36911 ft | 456 kts | 130° |
| 2026-05-01 13:37 | -0.25308 | 104.83329 | 36915 ft | 456 kts | 130° |
| 2026-05-01 13:38 | -0.29786 | 104.87811 | 36903 ft | 459 kts | 142° |
| 2026-05-01 13:38 | -0.32407 | 104.89633 | 36927 ft | 459 kts | 144° |
| 2026-05-01 13:39 | -0.37735 | 104.93166 | 36922 ft | 460 kts | 144° |
| 2026-05-01 13:39 | -0.43073 | 104.96707 | 36912 ft | 461 kts | 144° |
| 2026-05-01 13:40 | -0.48398 | 105.00284 | 36916 ft | 462 kts | 144° |
| 2026-05-01 13:40 | -0.53725 | 105.03886 | 36913 ft | 463 kts | 144° |
| 2026-05-01 13:41 | -0.59061 | 105.07497 | 36921 ft | 463 kts | 144° |
| 2026-05-01 13:41 | -0.64403 | 105.11112 | 36914 ft | 464 kts | 144° |
| 2026-05-01 13:42 | -0.69748 | 105.14728 | 36914 ft | 464 kts | 144° |
| 2026-05-01 13:42 | -0.75097 | 105.18346 | 36905 ft | 465 kts | 143° |
| 2026-05-01 13:43 | -0.80456 | 105.21971 | 36916 ft | 466 kts | 143° |
| 2026-05-01 13:43 | -0.85826 | 105.25604 | 36921 ft | 467 kts | 143° |
| 2026-05-01 13:44 | -0.91205 | 105.29243 | 36916 ft | 467 kts | 144° |
| 2026-05-01 13:44 | -0.96592 | 105.32887 | 36918 ft | 468 kts | 144° |
| 2026-05-01 13:45 | -1.01990 | 105.36539 | 36918 ft | 469 kts | 144° |
| 2026-05-01 13:45 | -1.07394 | 105.40195 | 36917 ft | 469 kts | 144° |
| 2026-05-01 13:46 | -1.12800 | 105.43853 | 36915 ft | 469 kts | 144° |
| 2026-05-01 13:46 | -1.18207 | 105.47512 | 36915 ft | 469 kts | 144° |
| 2026-05-01 13:47 | -1.23611 | 105.51168 | 36911 ft | 469 kts | 144° |
| 2026-05-01 13:47 | -1.28973 | 105.54796 | 36915 ft | 468 kts | 144° |
| 2026-05-01 13:48 | -1.34404 | 105.58472 | 36924 ft | 468 kts | 144° |
| 2026-05-01 13:48 | -1.39795 | 105.62120 | 36917 ft | 468 kts | 144° |
| 2026-05-01 13:49 | -1.45183 | 105.65767 | 36919 ft | 468 kts | 144° |
| 2026-05-01 13:49 | -1.50572 | 105.69415 | 36921 ft | 467 kts | 145° |
| 2026-05-01 13:50 | -1.55919 | 105.73034 | 36913 ft | 467 kts | 145° |
| 2026-05-01 13:50 | -1.61294 | 105.76673 | 36921 ft | 466 kts | 145° |
| 2026-05-01 13:51 | -1.66665 | 105.80309 | 36923 ft | 466 kts | 145° |
| 2026-05-01 13:51 | -1.72034 | 105.83944 | 36919 ft | 466 kts | 145° |
| 2026-05-01 13:52 | -1.77401 | 105.87578 | 36917 ft | 466 kts | 145° |
| 2026-05-01 13:52 | -1.82771 | 105.91214 | 36916 ft | 466 kts | 145° |
| 2026-05-01 13:53 | -1.88139 | 105.94849 | 36920 ft | 466 kts | 144° |
| 2026-05-01 13:53 | -1.96195 | 106.00306 | 36918 ft | 467 kts | 144° |
| 2026-05-01 13:54 | -2.01569 | 106.03946 | 36921 ft | 467 kts | 144° |
| 2026-05-01 13:54 | -2.06951 | 106.07593 | 36920 ft | 467 kts | 144° |
| 2026-05-01 13:55 | -2.12339 | 106.11244 | 36919 ft | 468 kts | 144° |
| 2026-05-01 13:55 | -2.17479 | 106.15199 | 36917 ft | 466 kts | 133° |
| 2026-05-01 13:56 | -2.21558 | 106.20202 | 36921 ft | 464 kts | 126° |
| 2026-05-01 13:56 | -2.25480 | 106.25334 | 36916 ft | 465 kts | 126° |
| 2026-05-01 13:57 | -2.28759 | 106.29592 | 36919 ft | 465 kts | 127° |
| 2026-05-01 13:57 | -2.33401 | 106.35553 | 36915 ft | 465 kts | 127° |
| 2026-05-01 13:58 | -2.37379 | 106.40640 | 36924 ft | 464 kts | 127° |
| 2026-05-01 13:58 | -2.41352 | 106.45718 | 36916 ft | 463 kts | 127° |
| 2026-05-01 13:59 | -2.45315 | 106.50786 | 36920 ft | 462 kts | 127° |
| 2026-05-01 13:59 | -2.49273 | 106.55850 | 36921 ft | 462 kts | 127° |
| 2026-05-01 14:00 | -2.53226 | 106.60909 | 36919 ft | 461 kts | 127° |
| 2026-05-01 14:00 | -2.57180 | 106.65969 | 36919 ft | 461 kts | 127° |
| 2026-05-01 14:01 | -2.61131 | 106.71025 | 36920 ft | 462 kts | 127° |
| 2026-05-01 14:01 | -2.65090 | 106.76093 | 36914 ft | 462 kts | 127° |
| 2026-05-01 14:02 | -2.69050 | 106.81162 | 36921 ft | 463 kts | 127° |
| 2026-05-01 14:02 | -2.73017 | 106.86242 | 36914 ft | 463 kts | 127° |
| 2026-05-01 14:03 | -2.76982 | 106.91319 | 36916 ft | 464 kts | 127° |
| 2026-05-01 14:03 | -2.80954 | 106.96406 | 36918 ft | 464 kts | 127° |
| 2026-05-01 14:04 | -2.84924 | 107.01491 | 36918 ft | 464 kts | 127° |
| 2026-05-01 14:04 | -2.88224 | 107.05718 | 36914 ft | 464 kts | 127° |
| 2026-05-01 14:05 | -2.92870 | 107.11669 | 36918 ft | 464 kts | 127° |
| 2026-05-01 14:05 | -2.96848 | 107.16766 | 36912 ft | 465 kts | 127° |
| 2026-05-01 14:06 | -3.00830 | 107.21870 | 36910 ft | 465 kts | 127° |
| 2026-05-01 14:06 | -3.04815 | 107.26977 | 36908 ft | 466 kts | 127° |
| 2026-05-01 14:07 | -3.08803 | 107.32089 | 36914 ft | 466 kts | 127° |
| 2026-05-01 14:08 | -3.14788 | 107.39762 | 36915 ft | 466 kts | 127° |
| 2026-05-01 14:08 | -3.18776 | 107.44876 | 36915 ft | 466 kts | 127° |
| 2026-05-01 14:09 | -3.22763 | 107.49990 | 36914 ft | 466 kts | 127° |
| 2026-05-01 14:09 | -3.26751 | 107.55105 | 36915 ft | 466 kts | 127° |
| 2026-05-01 14:10 | -3.30736 | 107.60219 | 36918 ft | 466 kts | 127° |
| 2026-05-01 14:10 | -3.34733 | 107.65326 | 36910 ft | 466 kts | 127° |
| 2026-05-01 14:11 | -3.38751 | 107.70410 | 36910 ft | 466 kts | 127° |
| 2026-05-01 14:11 | -3.44779 | 107.78036 | 36919 ft | 465 kts | 127° |
| 2026-05-01 14:12 | -3.48788 | 107.83117 | 36913 ft | 465 kts | 127° |
| 2026-05-01 14:12 | -3.52116 | 107.87338 | 36910 ft | 465 kts | 127° |
| 2026-05-01 14:13 | -3.56118 | 107.92414 | 36916 ft | 464 kts | 127° |
| 2026-05-01 14:13 | -3.60118 | 107.97488 | 36910 ft | 464 kts | 127° |
| 2026-05-01 14:14 | -3.64120 | 108.02564 | 36901 ft | 464 kts | 127° |
| 2026-05-01 14:14 | -3.68124 | 108.07645 | 36918 ft | 465 kts | 127° |
| 2026-05-01 14:15 | -3.72129 | 108.12728 | 36918 ft | 465 kts | 127° |
| 2026-05-01 14:15 | -3.76138 | 108.17817 | 36910 ft | 466 kts | 127° |
| 2026-05-01 14:16 | -3.80150 | 108.22910 | 36908 ft | 466 kts | 127° |
| 2026-05-01 14:16 | -3.84164 | 108.28006 | 36913 ft | 466 kts | 127° |
| 2026-05-01 14:17 | -3.88175 | 108.33100 | 36907 ft | 466 kts | 127° |
| 2026-05-01 14:17 | -3.92188 | 108.38197 | 36909 ft | 466 kts | 127° |
| 2026-05-01 14:18 | -3.96202 | 108.43297 | 36911 ft | 466 kts | 127° |
| 2026-05-01 14:18 | -3.99565 | 108.47569 | 36908 ft | 466 kts | 127° |
| 2026-05-01 14:19 | -4.04232 | 108.53501 | 36915 ft | 467 kts | 127° |
| 2026-05-01 14:19 | -4.08251 | 108.58609 | 36913 ft | 467 kts | 127° |
| 2026-05-01 14:20 | -4.14279 | 108.66272 | 36905 ft | 467 kts | 127° |
| 2026-05-01 14:21 | -4.18301 | 108.71387 | 36913 ft | 467 kts | 127° |
| 2026-05-01 14:21 | -4.22322 | 108.76501 | 36910 ft | 467 kts | 127° |
| 2026-05-01 14:22 | -4.28353 | 108.84173 | 36911 ft | 467 kts | 127° |
| 2026-05-01 14:22 | -4.32377 | 108.89293 | 36898 ft | 467 kts | 127° |
| 2026-05-01 14:23 | -4.36399 | 108.94413 | 36907 ft | 467 kts | 127° |
| 2026-05-01 14:23 | -4.40421 | 108.99532 | 36912 ft | 468 kts | 127° |
| 2026-05-01 14:24 | -4.44442 | 109.04652 | 36905 ft | 468 kts | 127° |
| 2026-05-01 14:24 | -4.48465 | 109.09775 | 36910 ft | 468 kts | 127° |
| 2026-05-01 14:25 | -4.52488 | 109.14898 | 36906 ft | 468 kts | 127° |
| 2026-05-01 14:25 | -4.56511 | 109.20024 | 36907 ft | 468 kts | 127° |
| 2026-05-01 14:26 | -4.62546 | 109.27714 | 36913 ft | 468 kts | 127° |
| 2026-05-01 14:27 | -4.66570 | 109.32843 | 36907 ft | 468 kts | 127° |
| 2026-05-01 14:27 | -4.70592 | 109.37971 | 36908 ft | 468 kts | 127° |
| 2026-05-01 14:28 | -4.76629 | 109.45669 | 36905 ft | 468 kts | 127° |
| 2026-05-01 14:28 | -4.80657 | 109.50807 | 36904 ft | 469 kts | 127° |
| 2026-05-01 14:29 | -4.84684 | 109.55945 | 36909 ft | 469 kts | 127° |
| 2026-05-01 14:30 | -4.92750 | 109.66239 | 36908 ft | 469 kts | 127° |
| 2026-05-01 14:31 | -4.98802 | 109.73966 | 36911 ft | 470 kts | 127° |
| 2026-05-01 14:31 | -5.02838 | 109.79120 | 36903 ft | 470 kts | 127° |
| 2026-05-01 14:32 | -5.06874 | 109.84275 | 36911 ft | 470 kts | 127° |
| 2026-05-01 14:32 | -5.10911 | 109.89434 | 36910 ft | 470 kts | 127° |
| 2026-05-01 14:33 | -5.14951 | 109.94597 | 36908 ft | 470 kts | 127° |
| 2026-05-01 14:33 | -5.18990 | 109.99759 | 36915 ft | 470 kts | 127° |
| 2026-05-01 14:34 | -5.23031 | 110.04926 | 36908 ft | 470 kts | 127° |
| 2026-05-01 14:34 | -5.27069 | 110.10090 | 36906 ft | 471 kts | 127° |
| 2026-05-01 14:35 | -5.31107 | 110.15257 | 36909 ft | 470 kts | 127° |
| 2026-05-01 14:35 | -5.35146 | 110.20424 | 36909 ft | 470 kts | 127° |
| 2026-05-01 14:36 | -5.39184 | 110.25592 | 36906 ft | 471 kts | 127° |
| 2026-05-01 14:36 | -5.43219 | 110.30759 | 36915 ft | 471 kts | 127° |
| 2026-05-01 14:37 | -5.47263 | 110.35937 | 36906 ft | 471 kts | 127° |
| 2026-05-01 14:37 | -5.51327 | 110.41095 | 36905 ft | 471 kts | 127° |
| 2026-05-01 14:38 | -5.55416 | 110.46235 | 36907 ft | 471 kts | 127° |
| 2026-05-01 14:38 | -5.59479 | 110.51344 | 36920 ft | 471 kts | 127° |
| 2026-05-01 14:39 | -5.63556 | 110.56482 | 36901 ft | 470 kts | 127° |
| 2026-05-01 14:39 | -5.67627 | 110.61619 | 36903 ft | 470 kts | 127° |
| 2026-05-01 14:40 | -5.71691 | 110.66748 | 36908 ft | 470 kts | 127° |
| 2026-05-01 14:40 | -5.75760 | 110.71885 | 36918 ft | 470 kts | 127° |
| 2026-05-01 14:41 | -5.79828 | 110.77021 | 36915 ft | 470 kts | 127° |
| 2026-05-01 14:41 | -5.83900 | 110.82164 | 36918 ft | 470 kts | 127° |
| 2026-05-01 14:42 | -5.87967 | 110.87302 | 36906 ft | 470 kts | 127° |
| 2026-05-01 14:42 | -5.92033 | 110.92439 | 36907 ft | 469 kts | 127° |
| 2026-05-01 14:43 | -5.96093 | 110.97570 | 36912 ft | 469 kts | 127° |
| 2026-05-01 14:43 | -6.00153 | 111.02704 | 36899 ft | 469 kts | 127° |
| 2026-05-01 14:44 | -6.04212 | 111.07837 | 36909 ft | 469 kts | 127° |
| 2026-05-01 14:44 | -6.10313 | 111.15555 | 36922 ft | 470 kts | 127° |
| 2026-05-01 14:45 | -6.16419 | 111.23282 | 36898 ft | 471 kts | 127° |
| 2026-05-01 14:46 | -6.20492 | 111.28439 | 36903 ft | 471 kts | 127° |
| 2026-05-01 14:46 | -6.26602 | 111.36177 | 36896 ft | 471 kts | 127° |
| 2026-05-01 14:47 | -6.30680 | 111.41342 | 36897 ft | 471 kts | 127° |
| 2026-05-01 14:48 | -6.36787 | 111.49082 | 36900 ft | 471 kts | 127° |
| 2026-05-01 14:48 | -6.42901 | 111.56834 | 36893 ft | 472 kts | 127° |
| 2026-05-01 14:49 | -6.51063 | 111.67188 | 36891 ft | 473 kts | 127° |
| 2026-05-01 14:50 | -6.59236 | 111.77561 | 36889 ft | 473 kts | 127° |
| 2026-05-01 14:51 | -6.65364 | 111.85343 | 36891 ft | 473 kts | 127° |
| 2026-05-01 14:52 | -6.71492 | 111.93129 | 36892 ft | 473 kts | 127° |
| 2026-05-01 14:53 | -6.77614 | 112.00910 | 36895 ft | 473 kts | 127° |
| 2026-05-01 14:53 | -6.81798 | 112.06010 | 36889 ft | 473 kts | 130° |
| 2026-05-01 14:54 | -6.86130 | 112.10990 | 36884 ft | 473 kts | 130° |
| 2026-05-01 14:54 | -6.90453 | 112.15972 | 36893 ft | 472 kts | 130° |
| 2026-05-01 14:55 | -6.94748 | 112.20975 | 36882 ft | 472 kts | 130° |
| 2026-05-01 14:55 | -6.98308 | 112.25138 | 36890 ft | 472 kts | 129° |
| 2026-05-01 14:56 | -7.02585 | 112.30147 | 36892 ft | 472 kts | 130° |
| 2026-05-01 14:56 | -7.06866 | 112.35159 | 36882 ft | 473 kts | 130° |
| 2026-05-01 14:57 | -7.11155 | 112.40179 | 36894 ft | 473 kts | 130° |
| 2026-05-01 14:57 | -7.17599 | 112.47725 | 36889 ft | 474 kts | 130° |
| 2026-05-01 14:58 | -7.21896 | 112.52760 | 36884 ft | 474 kts | 130° |
| 2026-05-01 14:58 | -7.26195 | 112.57799 | 36882 ft | 474 kts | 130° |
| 2026-05-01 14:59 | -7.30490 | 112.62835 | 36886 ft | 474 kts | 130° |
| 2026-05-01 14:59 | -7.34785 | 112.67872 | 36879 ft | 474 kts | 130° |
| 2026-05-01 15:00 | -7.41230 | 112.75433 | 36883 ft | 474 kts | 130° |
| 2026-05-01 15:01 | -7.45530 | 112.80478 | 36886 ft | 475 kts | 130° |
| 2026-05-01 15:01 | -7.49833 | 112.85529 | 36884 ft | 476 kts | 130° |
| 2026-05-01 15:02 | -7.54146 | 112.90595 | 36894 ft | 476 kts | 130° |
| 2026-05-01 15:02 | -7.58462 | 112.95666 | 36893 ft | 477 kts | 130° |
| 2026-05-01 15:03 | -7.62779 | 113.00740 | 36895 ft | 477 kts | 130° |
| 2026-05-01 15:03 | -7.67096 | 113.05816 | 36895 ft | 478 kts | 130° |
| 2026-05-01 15:04 | -7.71422 | 113.10904 | 36909 ft | 477 kts | 130° |
| 2026-05-01 15:04 | -7.75744 | 113.15989 | 36900 ft | 477 kts | 130° |
| 2026-05-01 15:05 | -7.80059 | 113.21068 | 36903 ft | 477 kts | 130° |
| 2026-05-01 15:05 | -7.84370 | 113.26143 | 36928 ft | 476 kts | 130° |
| 2026-05-01 15:06 | -7.88679 | 113.31218 | 36915 ft | 476 kts | 130° |
| 2026-05-01 15:06 | -7.92985 | 113.36292 | 36915 ft | 476 kts | 130° |
| 2026-05-01 15:07 | -7.97262 | 113.41333 | 36930 ft | 476 kts | 130° |
| 2026-05-01 15:07 | -8.01564 | 113.46406 | 36937 ft | 476 kts | 130° |
| 2026-05-01 15:08 | -8.05866 | 113.51480 | 36931 ft | 476 kts | 130° |
| 2026-05-01 15:08 | -8.10163 | 113.56550 | 36949 ft | 475 kts | 130° |
| 2026-05-01 15:09 | -8.14456 | 113.61618 | 36934 ft | 475 kts | 130° |
| 2026-05-01 15:09 | -8.18745 | 113.66684 | 36946 ft | 475 kts | 130° |
| 2026-05-01 15:10 | -8.23034 | 113.71750 | 36947 ft | 474 kts | 130° |
| 2026-05-01 15:10 | -8.29465 | 113.79345 | 36954 ft | 475 kts | 130° |
| 2026-05-01 15:11 | -8.35901 | 113.86954 | 36949 ft | 476 kts | 129° |
| 2026-05-01 15:12 | -8.40203 | 113.92042 | 36953 ft | 476 kts | 129° |
| 2026-05-01 15:12 | -8.46657 | 113.99680 | 36941 ft | 476 kts | 130° |
| 2026-05-01 15:14 | -8.57399 | 114.12403 | 36943 ft | 476 kts | 130° |
| 2026-05-01 15:14 | -8.63831 | 114.20027 | 36934 ft | 475 kts | 130° |
| 2026-05-01 15:15 | -8.72418 | 114.30211 | 36924 ft | 477 kts | 130° |
| 2026-05-01 15:16 | -8.81038 | 114.40443 | 36937 ft | 479 kts | 130° |
| 2026-05-01 15:18 | -8.91801 | 114.53230 | 36932 ft | 479 kts | 130° |
| 2026-05-01 15:19 | -9.00416 | 114.63475 | 36924 ft | 478 kts | 131° |
| 2026-05-01 15:19 | -9.06874 | 114.71160 | 36927 ft | 479 kts | 130° |
| 2026-05-01 15:20 | -9.13343 | 114.78865 | 36914 ft | 479 kts | 131° |
| 2026-05-01 15:21 | -9.17658 | 114.84003 | 36928 ft | 479 kts | 131° |
| 2026-05-01 15:21 | -9.21983 | 114.89154 | 36931 ft | 480 kts | 131° |
| 2026-05-01 15:22 | -9.28464 | 114.96879 | 36925 ft | 480 kts | 131° |
| 2026-05-01 15:22 | -9.32785 | 115.02034 | 36928 ft | 480 kts | 131° |
| 2026-05-01 15:23 | -9.37108 | 115.07193 | 36936 ft | 480 kts | 131° |
| 2026-05-01 15:23 | -9.41416 | 115.12338 | 36923 ft | 479 kts | 131° |
| 2026-05-01 15:24 | -9.45726 | 115.17486 | 36924 ft | 479 kts | 131° |
| 2026-05-01 15:24 | -9.50032 | 115.22631 | 36936 ft | 479 kts | 131° |
| 2026-05-01 15:25 | -9.54336 | 115.27776 | 36928 ft | 479 kts | 131° |
| 2026-05-01 15:25 | -9.58647 | 115.32933 | 36931 ft | 480 kts | 131° |
| 2026-05-01 15:26 | -9.62939 | 115.38068 | 36939 ft | 481 kts | 131° |
| 2026-05-01 15:26 | -9.67299 | 115.43287 | 36934 ft | 482 kts | 131° |
| 2026-05-01 15:27 | -9.71627 | 115.48471 | 36916 ft | 482 kts | 131° |
| 2026-05-01 15:28 | -9.78095 | 115.56221 | 36923 ft | 482 kts | 131° |
| 2026-05-01 15:28 | -9.82423 | 115.61409 | 36931 ft | 481 kts | 131° |
| 2026-05-01 15:29 | -9.88898 | 115.69177 | 36917 ft | 481 kts | 131° |
| 2026-05-01 15:30 | -9.97543 | 115.79555 | 36922 ft | 482 kts | 131° |
| 2026-05-01 15:31 | -10.10558 | 115.95196 | 36944 ft | 484 kts | 131° |
| 2026-05-01 15:32 | -10.19235 | 116.05637 | 36922 ft | 484 kts | 131° |
| 2026-05-01 15:34 | -10.32227 | 116.21288 | 36918 ft | 482 kts | 131° |